Fuding, China
Current Conditions -  °F | °C
As of 3:00 AM on Friday 24 Oct 2014 (Local Time) from ZSFZ Reporting Station
Few Clouds Few Clouds  
Wind Chill: 66°   Ceiling: Unl
Heat Index: 66°   Visibility: 6mi
Dew Point: 57°   Wind: 4mph
Humidity: 73%   Direction: 340°NNW
Pressure: 30.06"   Gusts: NA
Location:  27.33°N, 120.2°E
Report Text: ZSFZ 231900Z 34002MPS 300V020 9999 FEW027 19/14 Q1018 NOSIG
Loading
Personal Weather Stations






























Interactive Weather Map New forecast layout! Learn more

10-Day Weather Forecast

Advertisements
Track Severe Weather on mobile